sensor_id;sensor_type;location;lat;lon;timestamp;P1;durP1;ratioP1;P2;durP2;ratioP2
9773;SDS011;4926;42.670;23.316;2022-07-29T00:02:09;10.80;;;9.70;;
9773;SDS011;4926;42.670;23.316;2022-07-29T00:04:40;10.88;;;9.73;;
9773;SDS011;4926;42.670;23.316;2022-07-29T00:07:09;10.73;;;9.73;;
9773;SDS011;4926;42.670;23.316;2022-07-29T00:09:36;11.90;;;9.65;;
9773;SDS011;4926;42.670;23.316;2022-07-29T00:12:04;10.05;;;9.15;;
9773;SDS011;4926;42.670;23.316;2022-07-29T00:14:31;9.95;;;8.98;;
9773;SDS011;4926;42.670;23.316;2022-07-29T00:17:01;12.35;;;9.77;;
9773;SDS011;4926;42.670;23.316;2022-07-29T00:19:28;10.68;;;9.63;;
9773;SDS011;4926;42.670;23.316;2022-07-29T00:21:56;10.95;;;9.95;;
9773;SDS011;4926;42.670;23.316;2022-07-29T00:24:23;11.90;;;9.70;;
9773;SDS011;4926;42.670;23.316;2022-07-29T00:26:54;10.07;;;9.15;;
9773;SDS011;4926;42.670;23.316;2022-07-29T00:29:21;10.18;;;8.68;;
9773;SDS011;4926;42.670;23.316;2022-07-29T00:31:48;10.20;;;9.23;;
9773;SDS011;4926;42.670;23.316;2022-07-29T00:34:15;9.55;;;8.48;;
9773;SDS011;4926;42.670;23.316;2022-07-29T00:36:57;9.75;;;8.82;;
9773;SDS011;4926;42.670;23.316;2022-07-29T00:39:27;10.45;;;8.65;;
9773;SDS011;4926;42.670;23.316;2022-07-29T00:41:53;10.55;;;9.57;;
9773;SDS011;4926;42.670;23.316;2022-07-29T00:44:20;9.80;;;8.80;;
9773;SDS011;4926;42.670;23.316;2022-07-29T00:46:47;9.52;;;8.63;;
9773;SDS011;4926;42.670;23.316;2022-07-29T00:49:17;9.90;;;8.88;;
9773;SDS011;4926;42.670;23.316;2022-07-29T00:51:43;9.70;;;8.75;;
9773;SDS011;4926;42.670;23.316;2022-07-29T00:54:12;8.82;;;8.02;;
9773;SDS011;4926;42.670;23.316;2022-07-29T00:56:38;10.20;;;8.70;;
9773;SDS011;4926;42.670;23.316;2022-07-29T00:59:05;12.85;;;11.65;;
9773;SDS011;4926;42.670;23.316;2022-07-29T01:01:37;15.57;;;13.48;;
9773;SDS011;4926;42.670;23.316;2022-07-29T01:04:04;14.13;;;12.70;;
9773;SDS011;4926;42.670;23.316;2022-07-29T01:06:32;14.13;;;12.77;;
9773;SDS011;4926;42.670;23.316;2022-07-29T01:09:00;14.63;;;13.27;;
9773;SDS011;4926;42.670;23.316;2022-07-29T01:11:29;17.65;;;13.07;;
9773;SDS011;4926;42.670;23.316;2022-07-29T01:14:05;14.75;;;13.27;;
9773;SDS011;4926;42.670;23.316;2022-07-29T01:16:35;14.90;;;13.40;;
9773;SDS011;4926;42.670;23.316;2022-07-29T01:19:07;14.10;;;12.82;;
9773;SDS011;4926;42.670;23.316;2022-07-29T01:21:50;15.18;;;13.60;;
9773;SDS011;4926;42.670;23.316;2022-07-29T01:27:26;14.38;;;12.98;;
9773;SDS011;4926;42.670;23.316;2022-07-29T01:30:06;14.85;;;13.38;;
9773;SDS011;4926;42.670;23.316;2022-07-29T01:32:37;14.98;;;13.63;;
9773;SDS011;4926;42.670;23.316;2022-07-29T01:35:06;14.95;;;13.32;;
9773;SDS011;4926;42.670;23.316;2022-07-29T01:37:43;16.08;;;14.57;;
9773;SDS011;4926;42.670;23.316;2022-07-29T01:40:18;16.17;;;14.57;;
9773;SDS011;4926;42.670;23.316;2022-07-29T01:42:48;16.50;;;14.75;;
9773;SDS011;4926;42.670;23.316;2022-07-29T01:45:20;16.05;;;14.48;;
9773;SDS011;4926;42.670;23.316;2022-07-29T01:47:53;13.82;;;12.52;;
9773;SDS011;4926;42.670;23.316;2022-07-29T01:50:26;15.52;;;13.98;;
9773;SDS011;4926;42.670;23.316;2022-07-29T01:52:58;14.52;;;13.23;;
9773;SDS011;4926;42.670;23.316;2022-07-29T01:55:28;15.10;;;13.52;;
9773;SDS011;4926;42.670;23.316;2022-07-29T01:57:58;15.32;;;13.77;;
9773;SDS011;4926;42.670;23.316;2022-07-29T02:00:30;14.80;;;13.27;;
9773;SDS011;4926;42.670;23.316;2022-07-29T02:02:58;15.90;;;14.35;;
9773;SDS011;4926;42.670;23.316;2022-07-29T02:05:27;14.80;;;13.32;;
9773;SDS011;4926;42.670;23.316;2022-07-29T02:08:02;15.52;;;14.02;;
9773;SDS011;4926;42.670;23.316;2022-07-29T02:10:30;19.02;;;14.32;;
9773;SDS011;4926;42.670;23.316;2022-07-29T02:12:59;14.43;;;13.13;;
9773;SDS011;4926;42.670;23.316;2022-07-29T02:15:32;15.35;;;13.75;;
9773;SDS011;4926;42.670;23.316;2022-07-29T02:18:01;17.20;;;14.70;;
9773;SDS011;4926;42.670;23.316;2022-07-29T02:20:34;15.40;;;13.77;;
9773;SDS011;4926;42.670;23.316;2022-07-29T02:23:02;14.82;;;13.43;;
9773;SDS011;4926;42.670;23.316;2022-07-29T02:25:33;15.73;;;14.20;;
9773;SDS011;4926;42.670;23.316;2022-07-29T02:28:00;15.82;;;14.32;;
9773;SDS011;4926;42.670;23.316;2022-07-29T02:30:34;16.52;;;14.13;;
9773;SDS011;4926;42.670;23.316;2022-07-29T02:33:05;16.17;;;14.75;;
9773;SDS011;4926;42.670;23.316;2022-07-29T02:35:34;15.75;;;14.25;;
9773;SDS011;4926;42.670;23.316;2022-07-29T02:38:01;16.42;;;14.93;;
9773;SDS011;4926;42.670;23.316;2022-07-29T02:40:47;16.20;;;14.70;;
9773;SDS011;4926;42.670;23.316;2022-07-29T02:43:19;16.05;;;14.23;;
9773;SDS011;4926;42.670;23.316;2022-07-29T02:45:50;16.42;;;14.55;;
9773;SDS011;4926;42.670;23.316;2022-07-29T02:48:19;16.55;;;14.85;;
9773;SDS011;4926;42.670;23.316;2022-07-29T02:50:56;16.17;;;14.02;;
9773;SDS011;4926;42.670;23.316;2022-07-29T02:53:33;16.52;;;13.93;;
9773;SDS011;4926;42.670;23.316;2022-07-29T02:56:06;14.10;;;12.45;;
9773;SDS011;4926;42.670;23.316;2022-07-29T02:58:40;12.57;;;11.27;;
9773;SDS011;4926;42.670;23.316;2022-07-29T03:01:15;12.88;;;10.88;;
9773;SDS011;4926;42.670;23.316;2022-07-29T03:03:46;11.07;;;10.02;;
9773;SDS011;4926;42.670;23.316;2022-07-29T03:06:15;13.20;;;10.73;;
9773;SDS011;4926;42.670;23.316;2022-07-29T03:08:44;12.10;;;10.73;;
9773;SDS011;4926;42.670;23.316;2022-07-29T03:11:16;10.93;;;9.82;;
9773;SDS011;4926;42.670;23.316;2022-07-29T03:13:44;11.30;;;10.20;;
9773;SDS011;4926;42.670;23.316;2022-07-29T03:16:11;11.48;;;9.93;;
9773;SDS011;4926;42.670;23.316;2022-07-29T03:18:41;11.10;;;9.50;;
9773;SDS011;4926;42.670;23.316;2022-07-29T03:21:08;10.52;;;9.52;;
9773;SDS011;4926;42.670;23.316;2022-07-29T03:23:34;10.00;;;9.10;;
9773;SDS011;4926;42.670;23.316;2022-07-29T03:26:01;10.00;;;8.80;;
9773;SDS011;4926;42.670;23.316;2022-07-29T03:28:30;9.07;;;8.13;;
9773;SDS011;4926;42.670;23.316;2022-07-29T03:30:57;8.93;;;8.13;;
9773;SDS011;4926;42.670;23.316;2022-07-29T03:33:24;12.20;;;9.18;;
9773;SDS011;4926;42.670;23.316;2022-07-29T03:35:55;11.05;;;8.90;;
9773;SDS011;4926;42.670;23.316;2022-07-29T03:38:23;9.70;;;8.75;;
9773;SDS011;4926;42.670;23.316;2022-07-29T03:40:54;11.88;;;8.38;;
9773;SDS011;4926;42.670;23.316;2022-07-29T03:43:26;10.43;;;9.13;;
9773;SDS011;4926;42.670;23.316;2022-07-29T03:45:56;9.88;;;8.98;;
9773;SDS011;4926;42.670;23.316;2022-07-29T03:48:25;10.27;;;9.20;;
9773;SDS011;4926;42.670;23.316;2022-07-29T03:50:55;11.23;;;9.85;;
9773;SDS011;4926;42.670;23.316;2022-07-29T03:53:22;10.50;;;9.40;;
9773;SDS011;4926;42.670;23.316;2022-07-29T03:55:50;11.05;;;9.90;;
9773;SDS011;4926;42.670;23.316;2022-07-29T03:58:20;12.25;;;10.32;;
9773;SDS011;4926;42.670;23.316;2022-07-29T04:00:52;10.90;;;9.80;;
9773;SDS011;4926;42.670;23.316;2022-07-29T04:03:22;11.52;;;10.43;;
9773;SDS011;4926;42.670;23.316;2022-07-29T04:06:04;11.55;;;10.40;;
9773;SDS011;4926;42.670;23.316;2022-07-29T04:08:32;11.15;;;9.70;;
9773;SDS011;4926;42.670;23.316;2022-07-29T04:10:59;11.85;;;10.15;;
9773;SDS011;4926;42.670;23.316;2022-07-29T04:13:26;13.32;;;11.07;;
9773;SDS011;4926;42.670;23.316;2022-07-29T04:15:53;14.25;;;11.30;;
9773;SDS011;4926;42.670;23.316;2022-07-29T04:18:19;11.73;;;10.45;;
9773;SDS011;4926;42.670;23.316;2022-07-29T04:20:46;12.05;;;10.15;;
9773;SDS011;4926;42.670;23.316;2022-07-29T04:23:17;10.82;;;9.60;;
9773;SDS011;4926;42.670;23.316;2022-07-29T04:25:47;13.75;;;10.60;;
9773;SDS011;4926;42.670;23.316;2022-07-29T04:28:22;11.00;;;9.93;;
9773;SDS011;4926;42.670;23.316;2022-07-29T04:30:52;12.20;;;11.05;;
9773;SDS011;4926;42.670;23.316;2022-07-29T04:33:21;13.18;;;11.68;;
9773;SDS011;4926;42.670;23.316;2022-07-29T04:35:48;10.70;;;9.60;;
9773;SDS011;4926;42.670;23.316;2022-07-29T04:38:18;11.82;;;10.65;;
9773;SDS011;4926;42.670;23.316;2022-07-29T04:40:45;12.13;;;10.90;;
9773;SDS011;4926;42.670;23.316;2022-07-29T04:43:11;10.60;;;9.48;;
9773;SDS011;4926;42.670;23.316;2022-07-29T04:45:38;10.65;;;9.55;;
9773;SDS011;4926;42.670;23.316;2022-07-29T04:48:05;12.30;;;9.88;;
9773;SDS011;4926;42.670;23.316;2022-07-29T04:50:34;9.85;;;8.38;;
9773;SDS011;4926;42.670;23.316;2022-07-29T04:53:05;8.88;;;7.97;;
9773;SDS011;4926;42.670;23.316;2022-07-29T04:55:33;8.00;;;7.30;;
9773;SDS011;4926;42.670;23.316;2022-07-29T04:58:01;10.88;;;7.80;;
9773;SDS011;4926;42.670;23.316;2022-07-29T05:00:28;9.43;;;8.52;;
9773;SDS011;4926;42.670;23.316;2022-07-29T05:02:55;10.15;;;8.80;;
9773;SDS011;4926;42.670;23.316;2022-07-29T05:05:22;10.25;;;9.23;;
9773;SDS011;4926;42.670;23.316;2022-07-29T05:07:49;12.77;;;9.60;;
9773;SDS011;4926;42.670;23.316;2022-07-29T05:10:16;10.65;;;9.55;;
9773;SDS011;4926;42.670;23.316;2022-07-29T05:12:44;10.35;;;9.27;;
9773;SDS011;4926;42.670;23.316;2022-07-29T05:15:14;10.18;;;8.98;;
9773;SDS011;4926;42.670;23.316;2022-07-29T05:17:42;12.05;;;9.18;;
9773;SDS011;4926;42.670;23.316;2022-07-29T05:20:09;11.90;;;9.77;;
9773;SDS011;4926;42.670;23.316;2022-07-29T05:22:36;13.93;;;10.35;;
9773;SDS011;4926;42.670;23.316;2022-07-29T05:25:08;10.70;;;9.70;;
9773;SDS011;4926;42.670;23.316;2022-07-29T05:27:35;10.32;;;9.27;;
9773;SDS011;4926;42.670;23.316;2022-07-29T05:30:04;12.40;;;9.88;;
9773;SDS011;4926;42.670;23.316;2022-07-29T05:32:32;13.38;;;10.68;;
9773;SDS011;4926;42.670;23.316;2022-07-29T05:34:59;11.18;;;9.55;;
9773;SDS011;4926;42.670;23.316;2022-07-29T05:37:26;11.02;;;9.52;;
9773;SDS011;4926;42.670;23.316;2022-07-29T05:39:52;10.90;;;9.65;;
9773;SDS011;4926;42.670;23.316;2022-07-29T05:42:19;9.93;;;8.82;;
9773;SDS011;4926;42.670;23.316;2022-07-29T05:44:46;9.15;;;8.25;;
9773;SDS011;4926;42.670;23.316;2022-07-29T05:47:14;9.32;;;8.43;;
9773;SDS011;4926;42.670;23.316;2022-07-29T05:49:42;11.23;;;8.05;;
9773;SDS011;4926;42.670;23.316;2022-07-29T05:52:09;10.18;;;7.72;;
9773;SDS011;4926;42.670;23.316;2022-07-29T05:54:36;8.75;;;7.95;;
9773;SDS011;4926;42.670;23.316;2022-07-29T05:57:03;9.75;;;8.75;;
9773;SDS011;4926;42.670;23.316;2022-07-29T05:59:30;8.85;;;8.00;;
9773;SDS011;4926;42.670;23.316;2022-07-29T06:01:57;10.82;;;8.95;;
9773;SDS011;4926;42.670;23.316;2022-07-29T06:04:25;8.75;;;7.95;;
9773;SDS011;4926;42.670;23.316;2022-07-29T06:06:52;9.20;;;8.30;;
9773;SDS011;4926;42.670;23.316;2022-07-29T06:09:20;11.10;;;8.50;;
9773;SDS011;4926;42.670;23.316;2022-07-29T06:11:47;10.90;;;8.02;;
9773;SDS011;4926;42.670;23.316;2022-07-29T06:14:14;7.63;;;6.93;;
9773;SDS011;4926;42.670;23.316;2022-07-29T06:16:41;9.35;;;6.93;;
9773;SDS011;4926;42.670;23.316;2022-07-29T06:19:08;7.28;;;6.55;;
9773;SDS011;4926;42.670;23.316;2022-07-29T06:21:36;9.07;;;7.13;;
9773;SDS011;4926;42.670;23.316;2022-07-29T06:24:08;9.90;;;6.63;;
9773;SDS011;4926;42.670;23.316;2022-07-29T06:26:38;9.07;;;8.18;;
9773;SDS011;4926;42.670;23.316;2022-07-29T06:29:05;8.60;;;7.60;;
9773;SDS011;4926;42.670;23.316;2022-07-29T06:31:32;10.10;;;6.57;;
9773;SDS011;4926;42.670;23.316;2022-07-29T06:34:00;9.55;;;6.72;;
9773;SDS011;4926;42.670;23.316;2022-07-29T06:36:27;7.78;;;6.65;;
9773;SDS011;4926;42.670;23.316;2022-07-29T06:38:55;7.10;;;6.40;;
9773;SDS011;4926;42.670;23.316;2022-07-29T06:41:22;10.90;;;6.75;;
9773;SDS011;4926;42.670;23.316;2022-07-29T06:43:53;9.75;;;6.90;;
9773;SDS011;4926;42.670;23.316;2022-07-29T06:46:20;10.75;;;7.05;;
9773;SDS011;4926;42.670;23.316;2022-07-29T06:48:48;7.80;;;6.47;;
9773;SDS011;4926;42.670;23.316;2022-07-29T06:51:15;7.57;;;6.68;;
9773;SDS011;4926;42.670;23.316;2022-07-29T06:53:44;8.07;;;6.70;;
9773;SDS011;4926;42.670;23.316;2022-07-29T06:56:12;8.98;;;6.65;;
9773;SDS011;4926;42.670;23.316;2022-07-29T06:58:43;10.95;;;7.63;;
9773;SDS011;4926;42.670;23.316;2022-07-29T07:01:10;7.85;;;6.95;;
9773;SDS011;4926;42.670;23.316;2022-07-29T07:03:37;8.90;;;7.05;;
9773;SDS011;4926;42.670;23.316;2022-07-29T07:06:04;7.55;;;6.82;;
9773;SDS011;4926;42.670;23.316;2022-07-29T07:08:31;7.07;;;6.20;;
9773;SDS011;4926;42.670;23.316;2022-07-29T07:10:58;8.25;;;6.78;;
9773;SDS011;4926;42.670;23.316;2022-07-29T07:13:26;6.88;;;6.28;;
9773;SDS011;4926;42.670;23.316;2022-07-29T07:15:56;7.63;;;6.55;;
9773;SDS011;4926;42.670;23.316;2022-07-29T07:18:27;7.28;;;6.57;;
9773;SDS011;4926;42.670;23.316;2022-07-29T07:20:54;9.88;;;5.93;;
9773;SDS011;4926;42.670;23.316;2022-07-29T07:23:22;8.43;;;5.78;;
9773;SDS011;4926;42.670;23.316;2022-07-29T07:25:49;8.82;;;7.53;;
9773;SDS011;4926;42.670;23.316;2022-07-29T07:28:16;7.78;;;6.47;;
9773;SDS011;4926;42.670;23.316;2022-07-29T07:30:45;7.93;;;5.57;;
9773;SDS011;4926;42.670;23.316;2022-07-29T07:33:12;6.93;;;5.60;;
9773;SDS011;4926;42.670;23.316;2022-07-29T07:35:43;8.52;;;6.10;;
9773;SDS011;4926;42.670;23.316;2022-07-29T07:38:10;9.00;;;5.25;;
9773;SDS011;4926;42.670;23.316;2022-07-29T07:40:37;6.15;;;5.22;;
9773;SDS011;4926;42.670;23.316;2022-07-29T07:43:03;6.60;;;4.85;;
9773;SDS011;4926;42.670;23.316;2022-07-29T07:45:31;8.48;;;5.00;;
9773;SDS011;4926;42.670;23.316;2022-07-29T07:48:02;4.93;;;4.53;;
9773;SDS011;4926;42.670;23.316;2022-07-29T07:50:35;5.32;;;4.82;;
9773;SDS011;4926;42.670;23.316;2022-07-29T07:53:02;5.13;;;4.65;;
9773;SDS011;4926;42.670;23.316;2022-07-29T07:55:29;5.95;;;5.05;;
9773;SDS011;4926;42.670;23.316;2022-07-29T07:57:56;5.32;;;4.50;;
9773;SDS011;4926;42.670;23.316;2022-07-29T08:00:23;4.85;;;4.45;;
9773;SDS011;4926;42.670;23.316;2022-07-29T08:02:49;6.85;;;4.80;;
9773;SDS011;4926;42.670;23.316;2022-07-29T08:05:18;6.57;;;4.30;;
9773;SDS011;4926;42.670;23.316;2022-07-29T08:07:45;5.35;;;4.45;;
9773;SDS011;4926;42.670;23.316;2022-07-29T08:10:12;4.75;;;4.25;;
9773;SDS011;4926;42.670;23.316;2022-07-29T08:13:04;6.03;;;4.85;;
9773;SDS011;4926;42.670;23.316;2022-07-29T08:15:31;7.00;;;4.03;;
9773;SDS011;4926;42.670;23.316;2022-07-29T08:17:58;4.82;;;4.28;;
9773;SDS011;4926;42.670;23.316;2022-07-29T08:20:29;6.75;;;4.90;;
9773;SDS011;4926;42.670;23.316;2022-07-29T08:22:58;5.15;;;4.75;;
9773;SDS011;4926;42.670;23.316;2022-07-29T08:25:25;4.70;;;4.30;;
9773;SDS011;4926;42.670;23.316;2022-07-29T08:27:53;8.15;;;5.20;;
9773;SDS011;4926;42.670;23.316;2022-07-29T08:30:20;4.85;;;4.07;;
9773;SDS011;4926;42.670;23.316;2022-07-29T08:32:47;4.47;;;3.80;;
9773;SDS011;4926;42.670;23.316;2022-07-29T08:35:15;5.68;;;4.43;;
9773;SDS011;4926;42.670;23.316;2022-07-29T08:37:43;4.20;;;3.80;;
9773;SDS011;4926;42.670;23.316;2022-07-29T08:40:11;5.05;;;4.00;;
9773;SDS011;4926;42.670;23.316;2022-07-29T08:42:39;5.82;;;4.22;;
9773;SDS011;4926;42.670;23.316;2022-07-29T08:45:06;6.28;;;4.13;;
9773;SDS011;4926;42.670;23.316;2022-07-29T08:47:33;4.70;;;4.30;;
9773;SDS011;4926;42.670;23.316;2022-07-29T08:50:03;4.70;;;3.67;;
9773;SDS011;4926;42.670;23.316;2022-07-29T08:52:31;4.70;;;3.80;;
9773;SDS011;4926;42.670;23.316;2022-07-29T08:55:04;4.95;;;4.15;;
9773;SDS011;4926;42.670;23.316;2022-07-29T08:57:34;4.70;;;3.75;;
9773;SDS011;4926;42.670;23.316;2022-07-29T09:00:03;5.47;;;4.22;;
9773;SDS011;4926;42.670;23.316;2022-07-29T09:02:33;4.10;;;3.70;;
9773;SDS011;4926;42.670;23.316;2022-07-29T09:05:05;3.88;;;3.53;;
9773;SDS011;4926;42.670;23.316;2022-07-29T09:07:33;6.38;;;4.15;;
9773;SDS011;4926;42.670;23.316;2022-07-29T09:10:07;5.90;;;4.28;;
9773;SDS011;4926;42.670;23.316;2022-07-29T09:12:34;7.53;;;4.25;;
9773;SDS011;4926;42.670;23.316;2022-07-29T09:15:01;5.68;;;4.05;;
9773;SDS011;4926;42.670;23.316;2022-07-29T09:20:16;5.45;;;4.10;;
9773;SDS011;4926;42.670;23.316;2022-07-29T09:22:47;5.85;;;4.40;;
9773;SDS011;4926;42.670;23.316;2022-07-29T09:25:30;4.53;;;4.15;;
9773;SDS011;4926;42.670;23.316;2022-07-29T09:28:05;6.57;;;3.60;;
9773;SDS011;4926;42.670;23.316;2022-07-29T09:30:32;9.40;;;4.15;;
9773;SDS011;4926;42.670;23.316;2022-07-29T09:33:00;4.75;;;3.75;;
9773;SDS011;4926;42.670;23.316;2022-07-29T09:35:29;5.93;;;5.32;;
9773;SDS011;4926;42.670;23.316;2022-07-29T09:38:09;4.82;;;3.80;;
9773;SDS011;4926;42.670;23.316;2022-07-29T09:40:38;3.72;;;3.40;;
9773;SDS011;4926;42.670;23.316;2022-07-29T09:43:11;5.53;;;3.95;;
9773;SDS011;4926;42.670;23.316;2022-07-29T09:45:39;4.18;;;3.78;;
9773;SDS011;4926;42.670;23.316;2022-07-29T09:48:15;6.20;;;4.65;;
9773;SDS011;4926;42.670;23.316;2022-07-29T09:50:44;4.95;;;4.05;;
9773;SDS011;4926;42.670;23.316;2022-07-29T09:53:28;8.98;;;4.30;;
9773;SDS011;4926;42.670;23.316;2022-07-29T09:55:59;4.65;;;4.22;;
9773;SDS011;4926;42.670;23.316;2022-07-29T09:58:28;4.40;;;4.00;;
9773;SDS011;4926;42.670;23.316;2022-07-29T10:00:55;5.13;;;4.07;;
9773;SDS011;4926;42.670;23.316;2022-07-29T10:03:22;6.85;;;4.90;;
9773;SDS011;4926;42.670;23.316;2022-07-29T10:06:03;4.55;;;4.25;;
9773;SDS011;4926;42.670;23.316;2022-07-29T10:08:33;7.13;;;4.97;;
9773;SDS011;4926;42.670;23.316;2022-07-29T10:13:47;5.43;;;3.92;;
9773;SDS011;4926;42.670;23.316;2022-07-29T10:16:15;4.95;;;4.45;;
9773;SDS011;4926;42.670;23.316;2022-07-29T10:18:43;4.60;;;4.20;;
9773;SDS011;4926;42.670;23.316;2022-07-29T10:21:11;5.10;;;4.50;;
9773;SDS011;4926;42.670;23.316;2022-07-29T10:23:39;4.70;;;4.30;;
9773;SDS011;4926;42.670;23.316;2022-07-29T10:26:07;4.60;;;4.20;;
9773;SDS011;4926;42.670;23.316;2022-07-29T10:28:37;3.95;;;3.63;;
9773;SDS011;4926;42.670;23.316;2022-07-29T10:31:04;4.43;;;4.03;;
9773;SDS011;4926;42.670;23.316;2022-07-29T10:33:45;5.25;;;4.32;;
9773;SDS011;4926;42.670;23.316;2022-07-29T10:36:21;6.03;;;4.85;;
9773;SDS011;4926;42.670;23.316;2022-07-29T10:39:00;5.30;;;3.75;;
9773;SDS011;4926;42.670;23.316;2022-07-29T10:41:43;4.90;;;4.43;;
9773;SDS011;4926;42.670;23.316;2022-07-29T10:44:23;4.53;;;4.07;;
9773;SDS011;4926;42.670;23.316;2022-07-29T10:46:52;6.60;;;4.00;;
9773;SDS011;4926;42.670;23.316;2022-07-29T10:49:19;5.72;;;5.22;;
9773;SDS011;4926;42.670;23.316;2022-07-29T10:51:56;8.75;;;5.32;;
9773;SDS011;4926;42.670;23.316;2022-07-29T10:54:39;5.55;;;5.05;;
9773;SDS011;4926;42.670;23.316;2022-07-29T10:57:13;5.38;;;4.32;;
9773;SDS011;4926;42.670;23.316;2022-07-29T10:59:47;4.53;;;3.95;;
9773;SDS011;4926;42.670;23.316;2022-07-29T11:05:09;4.57;;;4.18;;
9773;SDS011;4926;42.670;23.316;2022-07-29T11:07:39;7.28;;;6.63;;
9773;SDS011;4926;42.670;23.316;2022-07-29T11:10:27;7.68;;;5.00;;
9773;SDS011;4926;42.670;23.316;2022-07-29T11:12:54;5.38;;;4.38;;
9773;SDS011;4926;42.670;23.316;2022-07-29T11:15:22;4.13;;;3.80;;
9773;SDS011;4926;42.670;23.316;2022-07-29T11:18:07;5.38;;;4.13;;
9773;SDS011;4926;42.670;23.316;2022-07-29T11:20:39;8.68;;;4.85;;
9773;SDS011;4926;42.670;23.316;2022-07-29T11:23:20;4.25;;;3.72;;
9773;SDS011;4926;42.670;23.316;2022-07-29T11:28:50;4.13;;;3.70;;
9773;SDS011;4926;42.670;23.316;2022-07-29T11:31:33;6.78;;;4.00;;
9773;SDS011;4926;42.670;23.316;2022-07-29T11:34:18;4.45;;;4.05;;
9773;SDS011;4926;42.670;23.316;2022-07-29T11:40:12;5.10;;;4.70;;
9773;SDS011;4926;42.670;23.316;2022-07-29T11:42:44;6.82;;;5.30;;
9773;SDS011;4926;42.670;23.316;2022-07-29T11:45:15;5.97;;;5.38;;
9773;SDS011;4926;42.670;23.316;2022-07-29T11:47:49;6.35;;;4.82;;
9773;SDS011;4926;42.670;23.316;2022-07-29T11:50:26;5.95;;;5.45;;
9773;SDS011;4926;42.670;23.316;2022-07-29T11:52:55;5.15;;;4.40;;
9773;SDS011;4926;42.670;23.316;2022-07-29T11:55:23;5.88;;;4.80;;
9773;SDS011;4926;42.670;23.316;2022-07-29T11:57:51;5.25;;;4.82;;
9773;SDS011;4926;42.670;23.316;2022-07-29T12:00:23;5.35;;;4.85;;
9773;SDS011;4926;42.670;23.316;2022-07-29T12:02:55;6.07;;;4.80;;
9773;SDS011;4926;42.670;23.316;2022-07-29T12:05:30;6.38;;;4.90;;
9773;SDS011;4926;42.670;23.316;2022-07-29T12:08:05;5.97;;;4.30;;
9773;SDS011;4926;42.670;23.316;2022-07-29T12:10:34;4.75;;;4.35;;
9773;SDS011;4926;42.670;23.316;2022-07-29T12:13:04;7.60;;;4.57;;
9773;SDS011;4926;42.670;23.316;2022-07-29T12:15:33;5.03;;;4.53;;
9773;SDS011;4926;42.670;23.316;2022-07-29T12:18:10;6.20;;;4.70;;
9773;SDS011;4926;42.670;23.316;2022-07-29T12:20:39;7.50;;;4.85;;
9773;SDS011;4926;42.670;23.316;2022-07-29T12:23:06;5.28;;;4.88;;
9773;SDS011;4926;42.670;23.316;2022-07-29T12:25:37;7.63;;;4.70;;
9773;SDS011;4926;42.670;23.316;2022-07-29T12:28:06;5.50;;;5.00;;
9773;SDS011;4926;42.670;23.316;2022-07-29T12:30:43;5.28;;;4.88;;
9773;SDS011;4926;42.670;23.316;2022-07-29T12:33:14;5.03;;;4.68;;
9773;SDS011;4926;42.670;23.316;2022-07-29T12:35:47;5.03;;;4.63;;
9773;SDS011;4926;42.670;23.316;2022-07-29T12:38:17;6.15;;;5.55;;
9773;SDS011;4926;42.670;23.316;2022-07-29T12:40:45;5.22;;;4.80;;
9773;SDS011;4926;42.670;23.316;2022-07-29T12:43:13;6.32;;;5.72;;
9773;SDS011;4926;42.670;23.316;2022-07-29T12:45:41;5.82;;;5.32;;
9773;SDS011;4926;42.670;23.316;2022-07-29T12:48:10;7.07;;;5.65;;
9773;SDS011;4926;42.670;23.316;2022-07-29T12:50:51;5.40;;;4.90;;
9773;SDS011;4926;42.670;23.316;2022-07-29T12:53:19;5.95;;;5.07;;
9773;SDS011;4926;42.670;23.316;2022-07-29T12:55:46;5.90;;;5.35;;
9773;SDS011;4926;42.670;23.316;2022-07-29T12:58:26;7.68;;;5.53;;
9773;SDS011;4926;42.670;23.316;2022-07-29T13:01:00;6.07;;;5.47;;
9773;SDS011;4926;42.670;23.316;2022-07-29T13:03:44;6.43;;;5.30;;
9773;SDS011;4926;42.670;23.316;2022-07-29T13:06:30;5.60;;;5.10;;
9773;SDS011;4926;42.670;23.316;2022-07-29T13:09:05;7.40;;;5.50;;
9773;SDS011;4926;42.670;23.316;2022-07-29T13:11:39;6.57;;;5.82;;
9773;SDS011;4926;42.670;23.316;2022-07-29T13:14:08;6.63;;;6.03;;
9773;SDS011;4926;42.670;23.316;2022-07-29T13:16:36;7.00;;;5.57;;
9773;SDS011;4926;42.670;23.316;2022-07-29T13:19:31;5.65;;;5.15;;
9773;SDS011;4926;42.670;23.316;2022-07-29T13:22:01;7.32;;;5.65;;
9773;SDS011;4926;42.670;23.316;2022-07-29T13:24:28;6.03;;;5.47;;
9773;SDS011;4926;42.670;23.316;2022-07-29T13:26:55;5.75;;;5.25;;
9773;SDS011;4926;42.670;23.316;2022-07-29T13:29:25;6.03;;;5.43;;
9773;SDS011;4926;42.670;23.316;2022-07-29T13:31:52;7.28;;;6.28;;
9773;SDS011;4926;42.670;23.316;2022-07-29T13:34:19;5.90;;;5.40;;
9773;SDS011;4926;42.670;23.316;2022-07-29T13:36:47;5.63;;;4.95;;
9773;SDS011;4926;42.670;23.316;2022-07-29T13:39:18;7.40;;;5.35;;
9773;SDS011;4926;42.670;23.316;2022-07-29T13:41:45;8.65;;;5.38;;
9773;SDS011;4926;42.670;23.316;2022-07-29T13:44:12;6.03;;;5.43;;
9773;SDS011;4926;42.670;23.316;2022-07-29T13:46:38;7.05;;;5.38;;
9773;SDS011;4926;42.670;23.316;2022-07-29T13:49:05;7.03;;;5.30;;
9773;SDS011;4926;42.670;23.316;2022-07-29T13:51:32;6.03;;;5.53;;
9773;SDS011;4926;42.670;23.316;2022-07-29T13:53:59;5.78;;;5.28;;
9773;SDS011;4926;42.670;23.316;2022-07-29T13:56:27;7.88;;;5.55;;
9773;SDS011;4926;42.670;23.316;2022-07-29T13:58:57;6.88;;;5.85;;
9773;SDS011;4926;42.670;23.316;2022-07-29T14:01:26;6.85;;;5.53;;
9773;SDS011;4926;42.670;23.316;2022-07-29T14:03:55;5.90;;;5.40;;
9773;SDS011;4926;42.670;23.316;2022-07-29T14:06:23;6.18;;;5.50;;
9773;SDS011;4926;42.670;23.316;2022-07-29T14:08:52;5.57;;;4.90;;
9773;SDS011;4926;42.670;23.316;2022-07-29T14:11:19;5.93;;;5.10;;
9773;SDS011;4926;42.670;23.316;2022-07-29T14:13:48;5.82;;;5.20;;
9773;SDS011;4926;42.670;23.316;2022-07-29T14:16:14;6.13;;;5.53;;
9773;SDS011;4926;42.670;23.316;2022-07-29T14:18:41;6.55;;;5.50;;
9773;SDS011;4926;42.670;23.316;2022-07-29T14:21:08;5.50;;;5.03;;
9773;SDS011;4926;42.670;23.316;2022-07-29T14:23:38;6.45;;;5.85;;
9773;SDS011;4926;42.670;23.316;2022-07-29T14:26:05;5.85;;;5.05;;
9773;SDS011;4926;42.670;23.316;2022-07-29T14:28:32;5.38;;;4.88;;
9773;SDS011;4926;42.670;23.316;2022-07-29T14:31:03;7.68;;;5.80;;
9773;SDS011;4926;42.670;23.316;2022-07-29T14:33:30;5.93;;;5.40;;
9773;SDS011;4926;42.670;23.316;2022-07-29T14:35:57;5.32;;;4.80;;
9773;SDS011;4926;42.670;23.316;2022-07-29T14:38:24;5.78;;;5.28;;
9773;SDS011;4926;42.670;23.316;2022-07-29T14:40:50;5.93;;;5.32;;
9773;SDS011;4926;42.670;23.316;2022-07-29T14:43:17;6.82;;;5.25;;
9773;SDS011;4926;42.670;23.316;2022-07-29T14:45:44;5.90;;;5.40;;
9773;SDS011;4926;42.670;23.316;2022-07-29T14:50:51;5.75;;;5.22;;
9773;SDS011;4926;42.670;23.316;2022-07-29T14:53:18;5.47;;;4.97;;
9773;SDS011;4926;42.670;23.316;2022-07-29T14:55:45;7.25;;;4.78;;
9773;SDS011;4926;42.670;23.316;2022-07-29T14:58:11;5.68;;;5.20;;
9773;SDS011;4926;42.670;23.316;2022-07-29T15:00:40;5.75;;;5.18;;
9773;SDS011;4926;42.670;23.316;2022-07-29T15:03:10;5.90;;;5.10;;
9773;SDS011;4926;42.670;23.316;2022-07-29T15:05:38;6.82;;;5.50;;
9773;SDS011;4926;42.670;23.316;2022-07-29T15:08:07;6.28;;;5.20;;
9773;SDS011;4926;42.670;23.316;2022-07-29T15:10:36;6.37;;;5.77;;
9773;SDS011;4926;42.670;23.316;2022-07-29T15:13:03;5.57;;;5.10;;
9773;SDS011;4926;42.670;23.316;2022-07-29T15:15:29;6.15;;;5.47;;
9773;SDS011;4926;42.670;23.316;2022-07-29T15:17:56;6.28;;;5.43;;
9773;SDS011;4926;42.670;23.316;2022-07-29T15:20:23;6.13;;;5.57;;
9773;SDS011;4926;42.670;23.316;2022-07-29T15:22:53;6.13;;;5.60;;
9773;SDS011;4926;42.670;23.316;2022-07-29T15:25:21;6.18;;;5.00;;
9773;SDS011;4926;42.670;23.316;2022-07-29T15:27:47;5.82;;;5.32;;
9773;SDS011;4926;42.670;23.316;2022-07-29T15:30:14;6.32;;;5.82;;